Time;durP1;ratioP1;P1;durP2;ratioP2;P2;SDS_P1;SDS_P2;PMS_P1;PMS_P2;Temp;Humidity;BMP_temperature;BMP_pressure;BME280_temperature;BME280_humidity;BME280_pressure;Samples;Min_cycle;Max_cycle;Signal;HPM_P1;HPM_P2
2021/05/29 00:00:49;;;;;;;7.15;2.85;;;10.40;99.90;;;;;;5075381;28;20162;-69
2021/05/29 00:03:14;;;;;;;5.07;2.90;;;10.40;99.90;;;;;;5083482;28;20025;-69
2021/05/29 00:05:42;;;;;;;6.35;2.60;;;10.40;99.90;;;;;;5068129;28;20956;-69
2021/05/29 00:08:08;;;;;;;4.90;2.80;;;10.40;99.90;;;;;;5068753;28;20434;-69
2021/05/29 00:10:34;;;;;;;4.50;3.00;;;10.30;99.90;;;;;;5070731;28;20123;-69
2021/05/29 00:13:02;;;;;;;7.40;3.10;;;10.30;99.90;;;;;;5064553;28;20541;-69
2021/05/29 00:15:28;;;;;;;6.40;2.72;;;10.30;99.90;;;;;;5067935;28;20032;-69
2021/05/29 00:17:56;;;;;;;5.68;2.80;;;10.30;99.90;;;;;;5069090;28;20043;-69
2021/05/29 00:20:21;;;;;;;6.97;2.42;;;10.20;99.90;;;;;;5071132;28;20047;-69
2021/05/29 00:22:49;;;;;;;6.22;3.20;;;10.20;99.90;;;;;;5069828;28;20169;-69
2021/05/29 00:25:18;;;;;;;4.43;2.70;;;10.20;99.90;;;;;;5072401;28;20059;-69
2021/05/29 00:27:46;;;;;;;6.35;2.70;;;10.20;99.90;;;;;;5072717;28;20029;-69
2021/05/29 00:30:15;;;;;;;7.45;2.75;;;10.20;99.90;;;;;;5071849;28;20124;-69
2021/05/29 00:32:41;;;;;;;5.15;2.75;;;10.10;99.90;;;;;;5074766;28;20028;-69
2021/05/29 00:35:08;;;;;;;5.00;2.50;;;10.10;99.90;;;;;;5070039;28;20646;-69
2021/05/29 00:37:39;;;;;;;4.85;2.60;;;10.10;99.90;;;;;;5071985;28;20027;-69
2021/05/29 00:40:07;;;;;;;7.18;2.70;;;10.00;99.90;;;;;;5069670;28;20040;-69
2021/05/29 00:42:36;;;;;;;5.13;2.70;;;10.00;99.90;;;;;;5070864;28;20425;-69
2021/05/29 00:45:02;;;;;;;5.93;2.60;;;10.00;99.90;;;;;;5071824;28;20644;-70
2021/05/29 00:47:30;;;;;;;6.60;2.70;;;10.00;99.90;;;;;;5080797;28;20037;-69
2021/05/29 00:49:58;;;;;;;5.43;2.60;;;10.00;99.90;;;;;;5071746;28;20461;-69
2021/05/29 00:52:26;;;;;;;4.32;2.60;;;9.90;99.90;;;;;;5070968;28;20043;-69
2021/05/29 00:54:53;;;;;;;5.80;2.60;;;9.90;99.90;;;;;;5070942;28;20023;-69
2021/05/29 00:57:18;;;;;;;6.93;2.83;;;9.90;99.90;;;;;;5069825;28;20025;-69
2021/05/29 00:59:47;;;;;;;5.32;2.60;;;9.90;99.90;;;;;;5070500;28;20748;-69
2021/05/29 01:02:16;;;;;;;5.65;3.03;;;9.80;99.90;;;;;;5071313;28;20025;-69
2021/05/29 01:04:42;;;;;;;4.72;2.47;;;9.80;99.90;;;;;;5069256;28;20020;-69
2021/05/29 01:07:09;;;;;;;5.10;2.67;;;9.80;99.90;;;;;;5068562;28;20392;-69
2021/05/29 01:09:44;;;;;;;4.55;2.70;;;9.80;99.90;;;;;;5069599;28;20492;-69
2021/05/29 01:12:13;;;;;;;5.10;2.70;;;9.70;99.90;;;;;;5068617;28;20040;-69
2021/05/29 01:14:47;;;;;;;5.40;2.90;;;9.70;99.90;;;;;;5069258;28;20123;-69
2021/05/29 01:17:15;;;;;;;4.93;2.60;;;9.70;99.90;;;;;;5068745;28;20029;-69
2021/05/29 01:19:41;;;;;;;5.30;2.50;;;9.70;99.90;;;;;;5053721;28;20025;-69
2021/05/29 01:22:10;;;;;;;8.15;2.88;;;9.70;99.90;;;;;;5069525;28;20044;-70
2021/05/29 01:24:38;;;;;;;4.90;2.78;;;9.70;99.90;;;;;;5069315;28;20039;-69
2021/05/29 01:27:04;;;;;;;3.80;2.40;;;9.60;99.90;;;;;;5068944;28;20046;-69
2021/05/29 01:29:31;;;;;;;6.00;2.85;;;9.60;99.90;;;;;;5071493;28;20472;-69
2021/05/29 01:32:05;;;;;;;5.53;2.40;;;9.60;99.90;;;;;;5071120;28;20466;-69
2021/05/29 01:34:35;;;;;;;4.30;2.63;;;9.60;99.90;;;;;;5054479;28;20370;-69
2021/05/29 01:37:02;;;;;;;7.65;3.00;;;9.50;99.90;;;;;;5070979;28;20461;-69
2021/05/29 01:39:28;;;;;;;5.32;2.58;;;9.50;99.90;;;;;;5059420;28;20029;-69
2021/05/29 01:41:53;;;;;;;6.35;2.95;;;9.50;99.90;;;;;;5070188;28;20024;-69
2021/05/29 01:44:23;;;;;;;5.13;2.70;;;9.50;99.90;;;;;;5056859;28;20025;-69
2021/05/29 01:46:50;;;;;;;6.00;2.55;;;9.50;99.90;;;;;;5054252;28;20572;-69
2021/05/29 01:49:19;;;;;;;5.38;2.67;;;9.50;99.90;;;;;;5068212;28;20063;-70
2021/05/29 01:51:44;;;;;;;4.40;2.70;;;9.50;99.90;;;;;;5069309;28;20081;-69
2021/05/29 01:54:15;;;;;;;6.43;3.10;;;9.40;99.90;;;;;;5070367;28;20029;-70
2021/05/29 01:56:40;;;;;;;5.38;3.10;;;9.40;99.90;;;;;;5067994;28;20557;-69
2021/05/29 01:59:06;;;;;;;4.53;2.53;;;9.40;99.90;;;;;;5068538;28;20033;-70
2021/05/29 02:01:34;;;;;;;6.25;2.90;;;9.40;99.90;;;;;;5069390;28;20041;-69
2021/05/29 02:03:59;;;;;;;4.68;3.10;;;9.30;99.90;;;;;;5068950;28;20442;-69
2021/05/29 02:06:27;;;;;;;5.43;2.60;;;9.30;99.90;;;;;;5069672;28;20042;-69
2021/05/29 02:08:56;;;;;;;5.50;2.83;;;9.30;99.90;;;;;;5069849;28;20113;-70
2021/05/29 02:11:23;;;;;;;4.45;2.63;;;9.30;99.90;;;;;;5070261;28;20382;-69
2021/05/29 02:13:49;;;;;;;6.85;2.92;;;9.30;99.90;;;;;;5067063;28;21917;-70
2021/05/29 02:16:19;;;;;;;6.90;3.20;;;9.30;99.90;;;;;;5069514;28;20032;-69
2021/05/29 02:18:48;;;;;;;5.60;2.78;;;9.30;99.90;;;;;;5070162;28;20044;-69
2021/05/29 02:21:17;;;;;;;4.57;2.50;;;9.30;99.90;;;;;;5069725;28;20043;-69
2021/05/29 02:23:45;;;;;;;5.63;2.80;;;9.30;99.90;;;;;;5070759;28;20044;-69
2021/05/29 02:26:21;;;;;;;5.47;2.92;;;9.30;99.90;;;;;;5067439;28;20033;-69
2021/05/29 02:28:49;;;;;;;6.85;2.70;;;9.20;99.90;;;;;;5068359;28;21859;-69
2021/05/29 02:31:15;;;;;;;4.50;2.53;;;9.20;99.90;;;;;;5067490;28;20469;-69
2021/05/29 02:33:41;;;;;;;4.50;2.83;;;9.20;99.90;;;;;;5067245;28;20044;-69
2021/05/29 02:36:07;;;;;;;4.63;2.53;;;9.20;99.90;;;;;;5066805;28;20032;-69
2021/05/29 02:38:35;;;;;;;5.47;2.60;;;9.20;99.90;;;;;;5066994;28;20063;-69
2021/05/29 02:41:03;;;;;;;6.35;2.90;;;9.20;99.90;;;;;;5068315;28;20104;-69
2021/05/29 02:43:28;;;;;;;4.47;2.55;;;9.20;99.90;;;;;;5068685;28;20028;-69
2021/05/29 02:45:56;;;;;;;4.57;2.53;;;9.20;99.90;;;;;;5068413;28;20385;-69
2021/05/29 02:48:22;;;;;;;4.55;2.55;;;9.20;99.90;;;;;;5057104;28;20208;-69
2021/05/29 02:50:47;;;;;;;4.13;2.60;;;9.10;99.90;;;;;;5066770;28;20533;-69
2021/05/29 02:53:14;;;;;;;5.00;2.88;;;9.20;99.90;;;;;;5067766;28;20039;-70
2021/05/29 02:55:40;;;;;;;7.55;3.00;;;9.20;99.90;;;;;;5068526;28;20037;-69
2021/05/29 02:58:06;;;;;;;5.10;2.38;;;9.10;99.90;;;;;;5066569;28;20359;-69
2021/05/29 03:00:33;;;;;;;5.60;2.30;;;9.10;99.90;;;;;;5070838;28;21876;-69
2021/05/29 03:03:00;;;;;;;4.43;2.17;;;9.10;99.90;;;;;;5067349;28;20164;-69
2021/05/29 03:05:25;;;;;;;4.60;2.35;;;9.10;99.90;;;;;;5052665;28;20445;-69
2021/05/29 03:07:53;;;;;;;5.30;2.47;;;9.10;99.90;;;;;;5066165;28;20032;-69
2021/05/29 03:10:19;;;;;;;4.32;2.40;;;9.10;99.90;;;;;;5069464;28;20361;-69
2021/05/29 03:12:50;;;;;;;5.00;2.20;;;9.10;99.90;;;;;;5069905;28;20036;-69
2021/05/29 03:15:19;;;;;;;4.50;2.22;;;9.10;99.90;;;;;;5068428;28;20115;-69
2021/05/29 03:17:45;;;;;;;4.05;2.60;;;9.10;99.90;;;;;;5066692;28;20029;-69
2021/05/29 03:20:12;;;;;;;4.60;2.47;;;9.00;99.90;;;;;;5065263;28;20361;-69
2021/05/29 03:22:38;;;;;;;3.88;2.30;;;9.00;99.90;;;;;;5068572;28;20036;-69
2021/05/29 03:25:07;;;;;;;3.80;2.05;;;9.00;99.90;;;;;;5069962;28;20034;-69
2021/05/29 03:27:36;;;;;;;3.55;2.03;;;9.00;99.90;;;;;;5059450;28;20024;-70
2021/05/29 03:30:10;;;;;;;3.92;2.33;;;9.00;99.90;;;;;;5068488;28;20031;-69
2021/05/29 03:32:38;;;;;;;6.20;2.78;;;9.00;99.90;;;;;;5066349;28;21831;-69
2021/05/29 03:35:05;;;;;;;3.95;2.10;;;9.00;99.90;;;;;;5068476;28;20108;-69
2021/05/29 03:37:31;;;;;;;3.60;2.00;;;9.00;99.90;;;;;;5069271;28;20680;-70
2021/05/29 03:39:56;;;;;;;3.47;1.80;;;9.00;99.90;;;;;;5067618;28;20028;-69
2021/05/29 03:42:22;;;;;;;3.83;2.00;;;8.90;99.90;;;;;;5067346;28;20088;-69
2021/05/29 03:44:50;;;;;;;4.80;2.13;;;8.90;99.90;;;;;;5068439;28;20043;-69
2021/05/29 03:47:16;;;;;;;3.92;2.05;;;8.90;99.90;;;;;;5069224;28;20472;-69
2021/05/29 03:49:44;;;;;;;4.18;2.10;;;8.90;99.90;;;;;;5067905;28;20044;-69
2021/05/29 03:52:11;;;;;;;3.72;1.95;;;8.90;99.90;;;;;;5067231;28;20040;-69
2021/05/29 03:54:39;;;;;;;4.65;2.00;;;8.90;99.90;;;;;;5065717;28;20105;-69
2021/05/29 03:57:07;;;;;;;3.78;1.92;;;8.90;99.90;;;;;;5068058;28;20028;-69
2021/05/29 03:59:33;;;;;;;5.22;2.00;;;8.90;99.90;;;;;;5068191;28;20028;-69
2021/05/29 04:01:58;;;;;;;3.75;2.00;;;8.90;99.90;;;;;;5067602;28;20047;-69
2021/05/29 04:04:24;;;;;;;3.75;2.00;;;8.90;99.90;;;;;;5067693;28;20044;-69
2021/05/29 04:06:52;;;;;;;5.50;2.10;;;8.90;99.90;;;;;;5068042;28;20024;-69
2021/05/29 04:09:20;;;;;;;3.38;1.85;;;8.90;99.90;;;;;;5067324;28;20513;-69
2021/05/29 04:11:48;;;;;;;4.70;2.15;;;8.90;99.90;;;;;;5069046;28;20039;-69
2021/05/29 04:14:16;;;;;;;5.10;2.20;;;8.90;99.90;;;;;;5067185;28;20161;-69
2021/05/29 04:16:42;;;;;;;3.78;1.90;;;8.90;99.90;;;;;;5060268;28;20052;-70
2021/05/29 04:19:07;;;;;;;3.50;1.90;;;8.90;99.90;;;;;;5068479;28;20534;-69
2021/05/29 04:21:33;;;;;;;4.20;2.20;;;8.90;99.90;;;;;;5064955;28;20020;-69
2021/05/29 04:24:01;;;;;;;4.13;2.00;;;8.90;99.90;;;;;;5068179;28;20106;-69
2021/05/29 04:26:26;;;;;;;4.43;2.20;;;8.90;99.90;;;;;;5049050;28;20162;-69
2021/05/29 04:28:52;;;;;;;3.80;2.10;;;8.90;99.90;;;;;;5067199;28;20987;-70
2021/05/29 04:31:21;;;;;;;4.72;1.90;;;8.90;99.90;;;;;;5068466;28;20655;-69
2021/05/29 04:33:49;;;;;;;4.32;2.20;;;8.90;99.90;;;;;;5078041;28;20101;-69
2021/05/29 04:36:14;;;;;;;5.32;2.10;;;8.90;99.90;;;;;;5065797;28;20474;-69
2021/05/29 04:38:40;;;;;;;4.03;2.00;;;8.90;99.90;;;;;;5068562;28;20090;-69
2021/05/29 04:41:08;;;;;;;4.15;2.00;;;8.90;99.90;;;;;;5065794;28;20025;-69
2021/05/29 04:43:34;;;;;;;5.13;1.92;;;8.90;99.90;;;;;;5067125;28;20025;-69
2021/05/29 04:45:59;;;;;;;3.50;2.00;;;8.90;99.90;;;;;;5067582;28;20046;-69
2021/05/29 04:48:25;;;;;;;3.20;2.00;;;9.00;99.90;;;;;;5069259;28;20618;-69
2021/05/29 04:53:35;;;;;;;4.95;2.10;;;9.00;99.90;;;;;;5065643;28;20047;-69
2021/05/29 04:56:01;;;;;;;3.20;1.90;;;9.10;99.90;;;;;;5070762;28;20064;-69
2021/05/29 04:58:27;;;;;;;3.92;2.10;;;9.00;99.90;;;;;;5067785;28;20986;-69
2021/05/29 05:00:53;;;;;;;3.55;2.13;;;9.10;99.90;;;;;;5068890;28;20151;-70
2021/05/29 05:03:21;;;;;;;3.97;2.03;;;9.10;99.90;;;;;;5057297;28;20038;-69
2021/05/29 05:05:47;;;;;;;3.70;2.03;;;9.20;99.90;;;;;;5071190;28;20033;-69
2021/05/29 05:08:13;;;;;;;4.13;1.90;;;9.20;99.90;;;;;;5070324;28;20086;-69
2021/05/29 05:10:38;;;;;;;4.00;2.00;;;9.20;99.90;;;;;;5070833;28;20443;-69
2021/05/29 05:13:06;;;;;;;3.88;1.98;;;9.30;99.90;;;;;;5078699;28;20042;-69
2021/05/29 05:15:34;;;;;;;3.05;1.80;;;9.30;99.90;;;;;;5072912;28;20043;-69
2021/05/29 05:18:00;;;;;;;4.20;2.20;;;9.30;99.90;;;;;;5070788;28;20033;-70
2021/05/29 05:20:25;;;;;;;3.63;2.10;;;9.40;99.90;;;;;;5069108;28;20036;-69
2021/05/29 05:22:51;;;;;;;4.88;2.22;;;9.40;99.90;;;;;;5068868;28;20055;-69
2021/05/29 05:25:17;;;;;;;3.03;1.90;;;9.50;99.90;;;;;;5073977;28;20024;-69
2021/05/29 05:27:42;;;;;;;3.20;2.10;;;9.50;99.90;;;;;;5070738;28;20025;-69
2021/05/29 05:30:10;;;;;;;4.35;2.53;;;9.50;99.90;;;;;;5071548;28;20024;-69
2021/05/29 05:32:36;;;;;;;4.55;2.70;;;9.60;99.90;;;;;;5070879;28;20021;-69
2021/05/29 05:35:03;;;;;;;4.63;2.50;;;9.60;99.90;;;;;;5052559;28;20036;-69
2021/05/29 05:37:28;;;;;;;4.35;2.40;;;9.70;99.90;;;;;;5071040;28;20028;-69
2021/05/29 05:39:59;;;;;;;4.65;2.50;;;9.70;99.90;;;;;;5052120;28;20037;-70
2021/05/29 05:42:24;;;;;;;3.90;2.45;;;9.80;99.90;;;;;;5070519;28;20029;-69
2021/05/29 05:44:50;;;;;;;3.60;2.38;;;9.80;99.90;;;;;;5071361;28;20029;-69
2021/05/29 05:47:16;;;;;;;4.20;2.60;;;9.90;99.90;;;;;;5057056;28;20043;-69
2021/05/29 05:49:44;;;;;;;5.25;2.72;;;9.90;99.90;;;;;;5070819;28;20072;-70
2021/05/29 05:52:09;;;;;;;4.53;2.30;;;10.00;99.90;;;;;;5070440;28;20128;-69
2021/05/29 05:54:40;;;;;;;4.82;2.50;;;10.00;99.90;;;;;;5067742;28;20525;-69
2021/05/29 05:57:05;;;;;;;4.43;2.60;;;10.10;99.90;;;;;;5070436;28;20029;-69
2021/05/29 05:59:31;;;;;;;3.63;2.30;;;10.20;99.90;;;;;;5069590;28;20053;-69
2021/05/29 06:01:57;;;;;;;4.85;2.30;;;10.20;99.90;;;;;;5069786;28;20646;-69
2021/05/29 06:04:24;;;;;;;3.67;2.20;;;10.30;99.90;;;;;;5086443;28;20024;-70
2021/05/29 06:06:50;;;;;;;4.60;2.40;;;10.30;99.90;;;;;;5069245;28;20055;-70
2021/05/29 06:09:16;;;;;;;4.70;2.25;;;10.40;99.90;;;;;;5068556;28;20419;-70
2021/05/29 06:11:43;;;;;;;4.30;2.40;;;10.40;99.90;;;;;;5069810;28;20046;-70
2021/05/29 06:19:20;;;;;;;3.90;2.30;;;10.60;99.90;;;;;;5069017;28;20150;-69
2021/05/29 06:21:49;;;;;;;3.42;2.20;;;10.60;99.90;;;;;;5067586;28;20021;-68
2021/05/29 06:24:27;;;;;;;4.13;2.30;;;10.70;99.90;;;;;;5047691;28;20033;-70
2021/05/29 06:26:53;;;;;;;4.57;2.30;;;10.80;99.90;;;;;;5049600;28;20043;-69
2021/05/29 06:29:19;;;;;;;4.15;2.10;;;10.80;99.90;;;;;;5051151;28;20037;-69
2021/05/29 06:31:46;;;;;;;4.00;2.30;;;10.90;99.90;;;;;;5049938;28;20477;-70
2021/05/29 06:34:16;;;;;;;4.20;2.25;;;10.90;99.90;;;;;;5050347;28;20043;-68
2021/05/29 06:36:42;;;;;;;4.10;2.60;;;11.00;99.90;;;;;;5036339;28;20052;-69
2021/05/29 06:39:08;;;;;;;4.40;2.40;;;11.00;99.90;;;;;;5046412;28;20411;-70
2021/05/29 06:41:33;;;;;;;3.92;2.33;;;11.10;99.90;;;;;;5049325;28;20013;-70
2021/05/29 06:43:59;;;;;;;4.13;2.20;;;11.20;99.90;;;;;;5046840;28;20028;-70
2021/05/29 06:46:25;;;;;;;3.80;2.28;;;11.20;99.90;;;;;;5048630;28;20029;-70
2021/05/29 06:48:52;;;;;;;3.90;2.42;;;11.20;99.90;;;;;;5050130;28;20047;-70
2021/05/29 06:51:24;;;;;;;3.80;2.15;;;11.30;99.90;;;;;;5050078;28;20169;-71
2021/05/29 06:53:53;;;;;;;3.15;2.13;;;11.30;99.90;;;;;;5047870;28;20028;-69
2021/05/29 06:59:03;;;;;;;4.30;2.15;;;11.50;99.90;;;;;;5049902;28;20036;-69
2021/05/29 07:01:31;;;;;;;4.20;2.20;;;11.50;99.90;;;;;;5048982;28;20029;-70
2021/05/29 07:03:57;;;;;;;3.78;2.20;;;11.60;99.90;;;;;;5049389;28;20112;-70
2021/05/29 07:06:27;;;;;;;4.20;2.55;;;11.70;99.90;;;;;;5048741;28;20044;-69
2021/05/29 07:08:56;;;;;;;4.70;2.40;;;11.70;99.90;;;;;;5047014;28;20689;-70
2021/05/29 07:11:22;;;;;;;4.63;2.30;;;11.80;99.90;;;;;;5046902;28;20020;-69
2021/05/29 07:13:49;;;;;;;4.22;2.50;;;11.90;99.90;;;;;;5049785;28;20051;-70
2021/05/29 07:16:16;;;;;;;4.28;2.30;;;12.00;99.90;;;;;;5048139;28;20125;-70
2021/05/29 07:18:46;;;;;;;3.92;2.40;;;12.00;99.90;;;;;;5050247;28;20029;-72
2021/05/29 07:21:13;;;;;;;5.05;2.70;;;12.10;99.90;;;;;;5047836;28;20029;-71
2021/05/29 07:23:38;;;;;;;5.85;2.70;;;12.20;99.90;;;;;;5064046;28;20049;-74
2021/05/29 07:26:05;;;;;;;5.60;2.80;;;12.20;99.90;;;;;;5083322;28;20474;-74
2021/05/29 07:28:31;;;;;;;6.25;3.60;;;12.30;99.90;;;;;;5069712;28;20029;-69
2021/05/29 07:30:57;;;;;;;4.35;2.60;;;12.40;99.90;;;;;;5068421;28;20055;-69
2021/05/29 07:33:23;;;;;;;3.65;2.45;;;12.50;99.90;;;;;;5068175;28;20543;-69
2021/05/29 07:35:50;;;;;;;4.70;2.75;;;12.60;99.90;;;;;;5067808;28;20039;-69
2021/05/29 07:38:15;;;;;;;4.20;2.40;;;12.70;99.90;;;;;;5069269;28;20056;-69
2021/05/29 07:40:43;;;;;;;4.32;2.42;;;12.80;99.90;;;;;;5071655;28;20116;-72
2021/05/29 07:43:09;;;;;;;4.50;2.80;;;13.00;99.90;;;;;;5050360;28;20030;-74
2021/05/29 07:45:35;;;;;;;5.97;2.92;;;13.20;99.90;;;;;;5068444;28;20039;-73
2021/05/29 07:48:00;;;;;;;6.85;3.38;;;13.50;99.90;;;;;;5068958;28;20032;-71
2021/05/29 07:50:28;;;;;;;5.13;2.17;;;13.70;99.90;;;;;;5068504;28;20124;-73
2021/05/29 07:52:57;;;;;;;4.45;2.33;;;14.00;99.90;;;;;;5068884;28;20037;-75
2021/05/29 07:55:24;;;;;;;4.47;2.30;;;14.20;99.90;;;;;;5069342;28;20043;-74
2021/05/29 07:57:50;;;;;;;4.25;2.00;;;14.50;99.90;;;;;;5068176;28;20043;-70
2021/05/29 08:00:22;;;;;;;3.63;1.67;;;14.70;99.90;;;;;;5073010;28;20345;-70
2021/05/29 08:02:50;;;;;;;3.25;1.70;;;14.90;99.90;;;;;;5067329;28;20020;-69
2021/05/29 08:05:18;;;;;;;2.92;1.65;;;15.20;99.90;;;;;;5068111;28;20035;-70
2021/05/29 08:07:44;;;;;;;3.30;1.80;;;15.40;99.90;;;;;;5067533;28;20112;-70
2021/05/29 08:10:12;;;;;;;3.38;1.80;;;15.60;99.90;;;;;;5066717;28;20024;-70
2021/05/29 08:12:38;;;;;;;3.05;1.80;;;15.80;99.90;;;;;;5073570;28;20039;-70
2021/05/29 08:15:05;;;;;;;3.45;1.90;;;16.00;99.90;;;;;;5056432;28;20028;-75
2021/05/29 08:17:31;;;;;;;3.45;1.73;;;16.10;99.90;;;;;;5067704;28;21045;-74
2021/05/29 08:19:56;;;;;;;3.53;1.90;;;16.30;99.90;;;;;;5066916;28;20036;-75
2021/05/29 08:22:22;;;;;;;3.30;2.00;;;16.40;99.90;;;;;;5050659;28;20044;-75
2021/05/29 08:24:50;;;;;;;3.42;1.90;;;16.60;99.90;;;;;;4366014;28;10000772;-71
2021/05/29 08:27:20;;;;;;;4.40;1.95;;;16.80;99.90;;;;;;5067068;28;20051;-70
2021/05/29 08:29:45;;;;;;;5.25;2.08;;;17.00;99.90;;;;;;5064498;28;20491;-70
2021/05/29 08:32:13;;;;;;;3.38;1.70;;;17.10;98.10;;;;;;5066104;28;20039;-70
2021/05/29 08:34:38;;;;;;;5.35;2.10;;;17.20;99.90;;;;;;5066934;28;20038;-71
2021/05/29 08:37:04;;;;;;;6.30;2.08;;;17.30;99.90;;;;;;5068292;28;20028;-70
2021/05/29 08:39:30;;;;;;;3.83;1.90;;;17.40;99.90;;;;;;5069477;28;20481;-70
2021/05/29 08:41:56;;;;;;;4.75;2.00;;;17.50;99.50;;;;;;5070753;28;20351;-70
2021/05/29 08:44:21;;;;;;;4.25;1.90;;;17.60;99.50;;;;;;5066684;28;20028;-70
2021/05/29 08:46:48;;;;;;;4.95;1.90;;;17.60;97.20;;;;;;5071567;28;20032;-70
2021/05/29 08:49:14;;;;;;;3.15;1.90;;;17.60;98.20;;;;;;5067880;28;20051;-72
2021/05/29 08:51:42;;;;;;;3.83;1.80;;;17.70;99.90;;;;;;5068861;28;20032;-70
2021/05/29 08:54:08;;;;;;;3.40;2.03;;;17.60;93.60;;;;;;5062179;28;20056;-71
2021/05/29 08:56:38;;;;;;;3.63;1.88;;;17.60;95.80;;;;;;5069914;28;20570;-71
2021/05/29 08:59:04;;;;;;;4.53;2.10;;;17.70;97.40;;;;;;5070279;28;20762;-72
2021/05/29 09:01:32;;;;;;;5.82;1.95;;;17.70;94.90;;;;;;5050193;28;20028;-74
2021/05/29 09:04:06;;;;;;;5.25;3.05;;;17.70;96.90;;;;;;5073166;28;21842;-78
2021/05/29 09:06:34;;;;;;;6.88;3.67;;;17.70;99.90;;;;;;5068441;28;20118;-75
2021/05/29 09:09:01;;;;;;;3.90;2.00;;;17.80;99.90;;;;;;5071298;28;20046;-71
2021/05/29 09:11:42;;;;;;;5.85;2.15;;;17.80;96.80;;;;;;5068327;28;20029;-70
2021/05/29 09:14:36;;;;;;;4.00;1.83;;;17.80;93.00;;;;;;5068402;28;20040;-71
2021/05/29 09:17:07;;;;;;;4.63;2.13;;;17.90;94.20;;;;;;5067214;28;20047;-70
2021/05/29 09:19:52;;;;;;;3.25;1.90;;;17.90;96.20;;;;;;5069628;28;20031;-70
2021/05/29 09:22:24;;;;;;;3.60;1.92;;;18.10;95.00;;;;;;5085449;28;20050;-70
2021/05/29 09:25:06;;;;;;;;;;;18.20;93.80;;;;;;5071795;28;20039;-71
2021/05/29 09:27:35;;;;;;;4.60;1.75;;;18.20;82.60;;;;;;5068638;28;19913;-70
2021/05/29 09:30:05;;;;;;;4.18;1.60;;;18.30;90.00;;;;;;5069549;28;20119;-70
2021/05/29 09:32:35;;;;;;;4.10;1.88;;;18.40;90.70;;;;;;5068416;28;20050;-71
2021/05/29 09:35:06;;;;;;;3.38;1.70;;;18.50;88.40;;;;;;5068103;28;20024;-70
2021/05/29 09:37:32;;;;;;;3.38;1.70;;;18.60;89.90;;;;;;5069176;28;20047;-72
2021/05/29 09:40:11;;;;;;;2.92;1.63;;;18.70;90.00;;;;;;5052597;28;20036;-70
2021/05/29 09:42:38;;;;;;;5.82;2.90;;;18.80;79.70;;;;;;5068498;28;20035;-75
2021/05/29 09:45:17;;;;;;;4.32;2.35;;;18.80;84.20;;;;;;5074377;28;20021;-72
2021/05/29 09:47:45;;;;;;;3.13;1.70;;;18.90;81.00;;;;;;5079951;28;20042;-71
2021/05/29 09:50:11;;;;;;;1.98;1.38;;;19.00;85.10;;;;;;4721091;28;10000380;-70
2021/05/29 09:52:37;;;;;;;2.22;1.50;;;19.00;79.40;;;;;;5075495;28;20469;-70
2021/05/29 09:55:11;;;;;;;3.72;1.80;;;19.00;78.00;;;;;;5078355;28;20027;-71
2021/05/29 09:58:01;;;;;;;2.95;1.70;;;19.20;79.60;;;;;;5075559;28;20048;-70
2021/05/29 10:00:40;;;;;;;2.90;1.80;;;19.30;84.80;;;;;;5063672;28;20462;-70
2021/05/29 10:03:06;;;;;;;3.47;1.65;;;19.40;77.40;;;;;;5074055;28;20133;-70
2021/05/29 10:05:34;;;;;;;3.17;1.92;;;19.40;80.80;;;;;;5074347;28;20556;-71
2021/05/29 10:08:08;;;;;;;2.95;1.75;;;19.50;72.50;;;;;;5063653;28;20039;-71
2021/05/29 10:10:34;;;;;;;2.38;1.50;;;19.50;70.40;;;;;;5075471;28;20912;-71
2021/05/29 10:13:03;;;;;;;3.50;1.58;;;19.50;72.70;;;;;;5077863;28;20039;-72
2021/05/29 10:15:31;;;;;;;3.72;1.75;;;19.40;72.70;;;;;;5079150;28;20020;-72
2021/05/29 10:17:57;;;;;;;2.92;1.50;;;19.40;75.60;;;;;;5077195;28;20024;-71
2021/05/29 10:20:28;;;;;;;4.65;1.63;;;19.50;75.30;;;;;;5079047;28;20048;-71
2021/05/29 10:22:53;;;;;;;4.10;1.83;;;19.40;72.50;;;;;;5075017;28;20864;-71
2021/05/29 10:25:22;;;;;;;2.72;1.50;;;19.30;69.10;;;;;;5062452;28;20035;-70
2021/05/29 10:27:52;;;;;;;3.97;1.70;;;19.30;74.90;;;;;;5079439;28;20101;-71
2021/05/29 10:30:22;;;;;;;2.33;1.60;;;19.30;74.70;;;;;;5076628;28;20614;-71
2021/05/29 10:33:16;;;;;;;2.55;1.50;;;19.50;76.30;;;;;;5076609;28;20040;-71
2021/05/29 10:35:46;;;;;;;3.05;1.50;;;19.60;73.50;;;;;;5078078;28;20108;-71
2021/05/29 10:38:14;;;;;;;3.30;1.35;;;19.60;74.00;;;;;;5074454;28;20047;-72
2021/05/29 10:40:45;;;;;;;2.58;1.50;;;19.70;74.70;;;;;;5074233;28;20474;-71
2021/05/29 10:43:18;;;;;;;2.47;1.50;;;19.70;72.60;;;;;;5065106;28;20027;-71
2021/05/29 10:45:50;;;;;;;3.65;2.00;;;19.60;70.80;;;;;;5077217;28;20767;-71
2021/05/29 10:48:27;;;;;;;2.90;1.65;;;19.50;71.60;;;;;;5078288;28;20061;-70
2021/05/29 10:51:08;;;;;;;3.03;1.77;;;19.40;72.30;;;;;;5074124;28;20111;-70
2021/05/29 10:53:46;;;;;;;2.65;1.60;;;19.30;72.00;;;;;;5079323;28;20526;-71
2021/05/29 10:56:15;;;;;;;2.47;1.63;;;19.30;74.40;;;;;;5076465;28;20036;-71
2021/05/29 10:59:13;;;;;;;3.67;1.33;;;19.20;71.20;;;;;;5077321;28;20016;-70
2021/05/29 11:01:42;;;;;;;3.03;1.70;;;19.30;72.60;;;;;;5076163;28;20095;-76
2021/05/29 11:04:18;;;;;;;4.50;2.03;;;19.30;72.20;;;;;;5077164;28;20028;-76
2021/05/29 11:06:47;;;;;;;2.97;1.73;;;19.20;67.00;;;;;;5076038;28;20735;-71
2021/05/29 11:09:14;;;;;;;4.22;1.83;;;19.20;68.80;;;;;;5075822;28;20101;-71
2021/05/29 11:11:42;;;;;;;2.58;1.50;;;19.20;70.00;;;;;;5077489;28;20369;-70
2021/05/29 11:14:11;;;;;;;2.58;1.40;;;19.10;70.00;;;;;;5077747;28;20105;-71
2021/05/29 11:19:16;;;;;;;3.35;1.60;;;19.40;69.30;;;;;;5078714;28;20021;-70
2021/05/29 11:22:00;;;;;;;2.65;1.50;;;19.50;69.00;;;;;;5066112;28;20028;-71
2021/05/29 11:24:36;;;;;;;2.67;1.60;;;19.60;68.60;;;;;;5077308;28;20142;-71
2021/05/29 11:27:04;;;;;;;3.13;1.63;;;19.60;70.40;;;;;;5085852;28;20133;-71
2021/05/29 11:29:47;;;;;;;2.08;1.50;;;19.60;69.00;;;;;;5078057;28;20890;-71
2021/05/29 11:32:13;;;;;;;3.72;1.40;;;19.60;69.50;;;;;;5078895;28;20474;-71
2021/05/29 11:34:47;;;;;;;2.15;1.40;;;19.70;69.20;;;;;;5074186;28;20020;-71
2021/05/29 11:37:18;;;;;;;1.90;1.30;;;19.80;63.90;;;;;;5077633;28;20031;-71
2021/05/29 11:39:55;;;;;;;2.95;1.40;;;19.90;64.40;;;;;;5076549;28;20036;-71
2021/05/29 11:42:26;;;;;;;3.85;1.60;;;20.00;65.90;;;;;;5060223;28;20099;-71
2021/05/29 11:45:12;;;;;;;3.03;1.55;;;20.00;64.90;;;;;;5074794;28;20540;-71
2021/05/29 11:47:42;;;;;;;3.83;1.48;;;20.20;64.40;;;;;;5062611;28;20028;-75
2021/05/29 11:50:15;;;;;;;2.33;1.40;;;20.30;65.60;;;;;;5061440;28;20046;-76
2021/05/29 11:52:44;;;;;;;2.65;1.42;;;20.60;63.50;;;;;;5081013;28;20021;-71
2021/05/29 11:55:13;;;;;;;3.30;1.50;;;20.70;64.10;;;;;;5075431;28;20444;-70
2021/05/29 11:58:04;;;;;;;3.10;1.60;;;20.90;65.50;;;;;;5077004;28;20519;-72
2021/05/29 12:00:30;;;;;;;2.97;1.30;;;21.00;65.50;;;;;;5078197;28;20020;-71
2021/05/29 12:02:58;;;;;;;3.53;1.77;;;20.90;62.80;;;;;;5066296;28;20269;-71
2021/05/29 12:05:37;;;;;;;2.83;1.60;;;20.80;61.00;;;;;;5077087;28;20046;-71
2021/05/29 12:08:04;;;;;;;3.63;1.52;;;20.70;60.10;;;;;;5066523;28;20107;-71
2021/05/29 12:10:46;;;;;;;4.13;1.50;;;20.50;62.70;;;;;;5064908;28;20036;-70
2021/05/29 12:13:27;;;;;;;2.17;1.38;;;20.50;60.40;;;;;;5083881;28;20038;-70
2021/05/29 12:15:57;;;;;;;3.00;1.55;;;20.60;64.80;;;;;;5080811;28;20035;-70
2021/05/29 12:18:23;;;;;;;2.20;1.40;;;20.80;66.40;;;;;;5082798;28;20593;-71
2021/05/29 12:20:55;;;;;;;2.92;1.60;;;20.80;64.40;;;;;;5083216;28;20107;-71
2021/05/29 12:23:21;;;;;;;2.38;1.65;;;20.80;64.80;;;;;;5071363;28;20052;-70
2021/05/29 12:25:47;;;;;;;4.25;1.52;;;20.80;62.40;;;;;;5079256;28;20042;-71
2021/05/29 12:28:12;;;;;;;3.40;1.70;;;20.70;63.40;;;;;;5082404;28;20017;-72
2021/05/29 12:30:39;;;;;;;3.10;1.48;;;20.80;62.90;;;;;;5079313;28;20036;-70
2021/05/29 12:33:23;;;;;;;3.35;1.73;;;20.90;61.70;;;;;;5066936;28;20086;-71
2021/05/29 12:36:05;;;;;;;2.95;1.52;;;21.10;60.60;;;;;;5081362;28;20456;-71
2021/05/29 12:38:30;;;;;;;2.97;1.40;;;21.30;63.00;;;;;;5080263;28;20651;-72
2021/05/29 12:41:11;;;;;;;2.75;1.30;;;21.30;62.80;;;;;;5080517;28;20242;-71
2021/05/29 12:43:40;;;;;;;2.65;1.40;;;21.30;59.60;;;;;;5079728;28;20041;-72
2021/05/29 12:46:23;;;;;;;2.53;1.50;;;21.20;62.70;;;;;;5079490;28;20074;-75
2021/05/29 12:49:13;;;;;;;2.08;1.33;;;21.10;63.00;;;;;;5078215;28;20111;-72
2021/05/29 12:51:39;;;;;;;2.55;1.55;;;21.00;62.20;;;;;;5076798;28;20028;-71
2021/05/29 12:54:04;;;;;;;2.08;1.40;;;21.00;61.90;;;;;;5080558;28;20542;-72
2021/05/29 12:56:32;;;;;;;5.70;1.90;;;21.10;62.00;;;;;;5076879;28;20024;-72
2021/05/29 12:59:06;;;;;;;2.40;1.50;;;21.20;65.50;;;;;;5075337;28;20101;-71
2021/05/29 13:12:16;;;;;;;3.58;1.50;;;20.90;64.80;;;;;;5079044;28;20039;-71
2021/05/29 13:14:44;;;;;;;4.32;1.65;;;20.90;63.70;;;;;;5066491;28;20036;-71
2021/05/29 13:17:21;;;;;;;3.78;1.70;;;20.90;61.80;;;;;;5069039;28;20024;-71
2021/05/29 13:19:54;;;;;;;2.75;1.65;;;20.90;62.90;;;;;;5079814;28;20052;-72
2021/05/29 13:22:27;;;;;;;3.05;1.40;;;20.90;62.20;;;;;;5077612;28;20492;-71